Florida Logo

Pensacola, FL Single Family Real Estate Listings

1088 Total Real Estate Listings * Click on table heading to sort
Date Posted Property Type Style Address Price Living Area Lot Size Price/Sq Ft.
2017-06-28 Single Family Contemporary 6333 Summer Lakes Ln Pensacola, FL 32504 $240,000 1,906 sq. ft. 11,326 sq. ft. $126
2017-06-27 Single Family Contemporary 5825 Grande Lagoon Blvd Pensacola, FL 32507 $469,550 1,602 sq. ft. 15,246 sq. ft. $293
2017-06-27 Single Family Cottage 8874 Ridgebrook Ct Pensacola, FL 32534 $160,000 1,490 sq. ft. 6,098 sq. ft. $107
2017-06-27 Single Family Traditional 6053 Twenty One Oaks Dr Pensacola, FL 32526 $254,525 1,798 sq. ft. 10,019 sq. ft. $142
2017-06-27 Single Family Colonial 703 Valley Grande Rd Pensacola, FL 32514 $134,900 1,404 sq. ft. 10,890 sq. ft. $96
2017-06-27 Single Family Traditional 6003 Twenty One Oaks Dr Pensacola, FL 32526 $261,930 1,798 sq. ft. 8,712 sq. ft. $146
2017-06-27 Single Family Traditional 7406 Farmers Rd Pensacola, FL 32526 $210,940 1,841 sq. ft. 8,808 sq. ft. $115
2017-06-27 Single Family Traditional 5109 Wheeler Way Pensacola, FL 32526 $236,125 1,868 sq. ft. 9,601 sq. ft. $126
2017-06-27 Single Family Ranch 2101 Gregory St Pensacola, FL 32502 $53,000 1,178 sq. ft. $45
2017-06-27 Single Family Traditional 887 Sterling Way Pensacola, FL 32506 $142,500 1,452 sq. ft. 6,861 sq. ft. $98
2017-06-27 Single Family Ranch 113 B St Pensacola, FL 32502 $33,000 624 sq. ft. $53
2017-06-27 Single Family Traditional 1079 Windchime Way Pensacola, FL 32503 $465,000 2,237 sq. ft. 6,098 sq. ft. $208
2017-06-27 Single Family Cottage 8112 Heirloom Dr Pensacola, FL 32514 $88,900 864 sq. ft. 3,271 sq. ft. $103
2017-06-27 Single Family Traditional 8669 Blake Evan Cir Pensacola, FL 32526 $309,675 2,511 sq. ft. 11,761 sq. ft. $123
2017-06-27 Single Family Contemporary 7378 Peterson Ln Pensacola, FL 32506 $160,000 1,769 sq. ft. 9,148 sq. ft. $90
2017-06-27 Single Family Traditional 8704 Blake Evan Cir Pensacola, FL 32526 $298,250 2,376 sq. ft. 10,890 sq. ft. $126
2017-06-27 Single Family Traditional 8710 Blake Evan Cir Pensacola, FL 32526 $303,200 2,401 sq. ft. 10,890 sq. ft. $126
2017-06-27 Single Family Traditional 1043 Windchime Way Pensacola, FL 32503 $465,000 2,276 sq. ft. 6,534 sq. ft. $204
2017-06-27 Single Family Ranch 4620 Tradewinds Cir Pensacola, FL 32514 $145,000 1,465 sq. ft. $99
2017-06-27 Single Family Traditional 7430 Baywoods Ln Pensacola, FL 32504 $209,999 1,938 sq. ft. 10,180 sq. ft. $108
2017-06-27 Single Family Ranch 5087 Terra Lake Cir Pensacola, FL 32507 $172,900 1,682 sq. ft. 8,198 sq. ft. $103
2017-06-27 Single Family Contemporary 1972 Southwind Cir Pensacola, FL 32506 $214,900 2,096 sq. ft. 14,784 sq. ft. $103
2017-06-27 Single Family Ranch 7410 Churchill Pl Pensacola, FL 32526 $174,900 1,740 sq. ft. 24,829 sq. ft. $101
2017-06-27 Single Family Traditional 5005 Challenger Way Pensacola, FL 32507 $249,000 2,121 sq. ft. 12,432 sq. ft. $117
2017-06-27 Single Family Traditional 8877 Marsh Elder Dr Pensacola, FL 32526 $289,809 1,797 sq. ft. 10,934 sq. ft. $161
2017-06-26 Single Family Traditional 2124 Pin High Dr Pensacola, FL 32526 $205,000 1,863 sq. ft. 11,761 sq. ft. $110
2017-06-26 Single Family Craftsman 7069 Cabral St Pensacola, FL 32503 $120,000 1,808 sq. ft. $66
2017-06-26 Single Family Contemporary 7461 Deck Ln Pensacola, FL 32526 $245,000 2,408 sq. ft. 11,326 sq. ft. $102
2017-06-26 Single Family Traditional 2064 Pin High Dr Pensacola, FL 32526 $227,500 2,800 sq. ft. 11,326 sq. ft. $81
2017-06-26 Single Family Traditional 7769 Fieldcrest Ct Pensacola, FL 32526 $265,782 2,242 sq. ft. 17,337 sq. ft. $119
2017-06-26 Single Family Ranch 3212 Raines St Pensacola, FL 32514 $154,900 1,460 sq. ft. 9,540 sq. ft. $106
2017-06-26 Single Family Contemporary 8526 Scenic Hills Dr Pensacola, FL 32514 $217,000 1,701 sq. ft. 10,890 sq. ft. $128
2017-06-26 Single Family Traditional 2125 Bayou Blvd Pensacola, FL 32503 $1,399,000 5,000 sq. ft. 53,143 sq. ft. $280
2017-06-26 Single Family Colonial; Traditional 10721 Beulah Rd Pensacola, FL 32526 $189,900 2,133 sq. ft. 87,120 sq. ft. $89
2017-06-26 Single Family Craftsman 2000 Garden St Pensacola, FL 32502 $145,000 1,256 sq. ft. 7,501 sq. ft. $115
2017-06-26 Single Family Cottage 412 Pou Station Pensacola, FL 32507 $89,900 1,170 sq. ft. 7,806 sq. ft. $77
2017-06-26 Single Family Contemporary 5040 Cassia Dr Pensacola, FL 32506 $189,900 1,892 sq. ft. 9,583 sq. ft. $100
2017-06-26 Single Family Traditional 1803 Intendencia St Pensacola, FL 32502 $85,000 1,299 sq. ft. 7,405 sq. ft. $65
2017-06-26 Single Family Colonial; Ranch 4000 Rommitch Ln Pensacola, FL 32504 $259,000 2,510 sq. ft. 13,408 sq. ft. $103
2017-06-26 Single Family Traditional 7406 Viewcrest Dr Pensacola, FL 32503 $110,000 1,500 sq. ft. 6,534 sq. ft. $73
2017-06-26 Single Family Cottage 4835 Huron Dr Pensacola, FL 32507 $99,900 1,486 sq. ft. 2,265 sq. ft. $67
2017-06-26 Single Family Ranch 906 Blue Springs Dr Pensacola, FL 32505 $39,900 912 sq. ft. 9,396 sq. ft. $44
2017-06-26 Single Family Cottage 9317 Plumiera Pl Pensacola, FL 32526 $99,900 1,330 sq. ft. 13,464 sq. ft. $75
2017-06-25 Single Family Traditional 323 Tree Swallow Dr Pensacola, FL 32503 $219,950 2,072 sq. ft. 8,712 sq. ft. $106
2017-06-25 Single Family Ranch 8 Wisconsin Dr Pensacola, FL 32505 $49,900 1,368 sq. ft. 6,856 sq. ft. $36
2017-06-25 Single Family Contemporary 5610 Enchanting Oaks Dr Pensacola, FL 32504 $279,900 1,982 sq. ft. 6,534 sq. ft. $141
2017-06-25 Single Family English Tudor 8245 Monticello Dr Pensacola, FL 32514 $169,900 2,042 sq. ft. 12,632 sq. ft. $83
2017-06-25 Single Family Traditional 8365 Lawton St Pensacola, FL 32514 $139,000 1,378 sq. ft. 12,197 sq. ft. $101
2017-06-25 Single Family Craftsman 5125 Pine Hollow Dr Pensacola, FL 32505 $585,000 2,751 sq. ft. 11,326 sq. ft. $213
2017-06-25 Single Family Traditional 2513 Tarkiln Oak Dr Pensacola, FL 32506 $199,864 2,052 sq. ft. 11,761 sq. ft. $97
2017-06-24 Single Family Ranch 7637 Jamesville Rd Pensacola, FL 32526 $115,000 1,100 sq. ft. 19,166 sq. ft. $105
2017-06-24 Single Family Victorian 106 Lloyd St Pensacola, FL 32501 $399,500 3,215 sq. ft. 7,231 sq. ft. $124
2017-06-24 Single Family Cottage; Ranch 334 Mizzen Ln Pensacola, FL 32507 $159,900 1,660 sq. ft. $96
2017-06-24 Single Family Ranch 2765 Paz Pl Pensacola, FL 32506 $181,900 2,388 sq. ft. 65,540 sq. ft. $76
2017-06-24 Single Family Ranch 3409 Blue Angel Pkwy Pensacola, FL 32526 $89,900 1,075 sq. ft. 11,326 sq. ft. $84
2017-06-24 Single Family Craftsman 1705 Scott St Pensacola, FL 32503 $199,000 1,100 sq. ft. 8,276 sq. ft. $181
2017-06-24 Single Family Ranch 502 Edgewood Cr Pensacola, FL 32506 $74,000 1,320 sq. ft. 8,324 sq. ft. $56
2017-06-24 Single Family Contemporary 6116 Electra Ln Pensacola, FL 32507 $225,000 1,930 sq. ft. 12,632 sq. ft. $117
2017-06-24 Single Family Traditional 10692 Squall Line Rd Pensacola, FL 32507 $400,000 2,630 sq. ft. 6,839 sq. ft. $152
2017-06-23 Single Family Ranch 7670 Le Jeune Dr Pensacola, FL 32514 $155,000 1,842 sq. ft. 10,555 sq. ft. $84
2017-06-23 Single Family Cottage 535 1st St Pensacola, FL 32507 $87,700 1,100 sq. ft. $80
2017-06-23 Single Family Craftsman 1931 Jackson St Pensacola, FL 32501 $795,000 3,063 sq. ft. 19,249 sq. ft. $260
2017-06-23 Single Family Traditional 7935 Castle Pointe Way Pensacola, FL 32506 $265,000 2,750 sq. ft. 11,326 sq. ft. $96
2017-06-23 Single Family Spanish 1831 Blount Pensacola, FL 32503 $425,000 1,802 sq. ft. 10,598 sq. ft. $236
2017-06-23 Single Family Cottage 520 Gregory St Pensacola, FL 32502 $279,900 1,274 sq. ft. 4,792 sq. ft. $220
2017-06-23 Single Family Victorian 713 Spring St Pensacola, FL 32501 $215,000 2,700 sq. ft. 6,098 sq. ft. $80
2017-06-23 Single Family Cottage; Country; Traditional; Victorian 810 G St Pensacola, FL 32502 $215,000 1,803 sq. ft. 9,148 sq. ft. $119
2017-06-23 Single Family Contemporary 4949 Vizcaya Dr Pensacola, FL 32507 $249,800 1,856 sq. ft. 7,318 sq. ft. $135
2017-06-23 Single Family Country 8863 Eight Mile Creek Rd Pensacola, FL 32534 $359,900 1,800 sq. ft. 326,700 sq. ft. $200
2017-06-23 Single Family Contemporary 436 Strandview Dr Pensacola, FL 32534 $169,900 1,502 sq. ft. 1,045,440 sq. ft. $113
2017-06-23 Single Family Traditional 7714 Tippin Ave Pensacola, FL 32514 $144,900 1,566 sq. ft. 41,818 sq. ft. $93
2017-06-23 Single Family Ranch 3547 Maikai Dr Pensacola, FL 32505 $325,000 1,404 sq. ft. 18,587 sq. ft. $231
2017-06-22 Single Family Traditional 6348 Mers Ln Pensacola, FL 32526 $175,000 1,678 sq. ft. $104
2017-06-22 Single Family Traditional 4251 Brookside Dr Pensacola, FL 32503 $114,900 1,260 sq. ft. 4,356 sq. ft. $91
2017-06-22 Single Family Cottage 316 Moreno Pensacola, FL 32503 $104,900 600 sq. ft. 4,356 sq. ft. $175
2017-06-22 Single Family Contemporary 7359 Peterson Ln Pensacola, FL 32506 $211,900 2,279 sq. ft. 10,890 sq. ft. $93
2017-06-22 Single Family Contemporary 1089 Black Walnut Trl Pensacola, FL 32514 $399,500 2,929 sq. ft. 12,088 sq. ft. $136
2017-06-22 Single Family Traditional 7855 Sasser Ln Pensacola, FL 32526 $795,000 5,318 sq. ft. 348,480 sq. ft. $149
2017-06-22 Single Family Contemporary 5614 Innerarity Cir Pensacola, FL 32507 $475,000 3,256 sq. ft. 17,180 sq. ft. $146
2017-06-22 Single Family Traditional 9733 Hollowbrook Dr Pensacola, FL 32514 $185,000 1,982 sq. ft. 14,810 sq. ft. $93
2017-06-22 Single Family Ranch 5184 Choctaw Ave Pensacola, FL 32507 $236,900 2,600 sq. ft. 16,553 sq. ft. $91
2017-06-22 Single Family Contemporary 8398 Harbour Sq Dr Pensacola, FL 32514 $104,900 1,120 sq. ft. 4,069 sq. ft. $94
2017-06-22 Single Family Cottage 8861 Gulf Beach Hwy Pensacola, FL 32507 $120,000 1,281 sq. ft. 109,928 sq. ft. $94
2017-06-22 Single Family Traditional 4850 Balmoral Dr Pensacola, FL 32504 $152,000 1,615 sq. ft. 9,583 sq. ft. $94
2017-06-22 Single Family Ranch 7429 Floyd Dr Pensacola, FL 32526 $140,000 2,146 sq. ft. 15,682 sq. ft. $65
2017-06-21 Single Family Cottage; Traditional 118 Bayou Blvd Pensacola, FL 32503 $269,000 1,990 sq. ft. 16,553 sq. ft. $135
2017-06-21 Single Family Traditional 6804 Devonshire Cir Pensacola, FL 32506 $174,900 1,998 sq. ft. 13,504 sq. ft. $88
2017-06-21 Single Family Traditional 1414 10th Ave Pensacola, FL 32503 $449,000 2,936 sq. ft. 8,276 sq. ft. $153
2017-06-21 Single Family Ranch 2027 Roberts Cir Pensacola, FL 32534 $69,900 1,440 sq. ft. 12,632 sq. ft. $49
2017-06-21 Single Family Ranch; Traditional 630 Whitney Dr Pensacola, FL 32503 $286,000 2,184 sq. ft. 14,179 sq. ft. $131
2017-06-21 Single Family Traditional 8232 Monticello Dr Pensacola, FL 32514 $99,500 1,910 sq. ft. 13,003 sq. ft. $52
2017-06-21 Single Family Contemporary 11529 Dueling Oaks Dr Pensacola, FL 32514 $324,900 3,080 sq. ft. 47,045 sq. ft. $105
2017-06-21 Single Family Traditional 3650 Wimbledon Dr Pensacola, FL 32504 $229,900 2,130 sq. ft. $108
2017-06-21 Single Family Cottage 3 Ruberia Ave Pensacola, FL 32507 $29,900 881 sq. ft. 9,148 sq. ft. $34
2017-06-21 Single Family Ranch 3111 Muldoon Dr Pensacola, FL 32526 $95,000 1,274 sq. ft. 29,621 sq. ft. $75
2017-06-21 Single Family Traditional 5039 Port St Joe St Pensacola, FL 32526 $195,000 2,254 sq. ft. 9,583 sq. ft. $87
2017-06-21 Single Family Country 8675 Bowman Ave Pensacola, FL 32534 $240,000 2,444 sq. ft. 125,453 sq. ft. $98
2017-06-21 Single Family Traditional 736 Fairfied Dr Pensacola, FL 32506 $69,000 1,300 sq. ft. 3,398 sq. ft. $53
2017-06-21 Single Family Ranch 2921 Magnolia Ave Pensacola, FL 32503 $164,900 1,542 sq. ft. 9,148 sq. ft. $107
2017-06-21 Single Family Ranch 6521 Allyn Way Pensacola, FL 32504 $65,720 1,669 sq. ft. 8,712 sq. ft. $39
2017-06-21 Single Family Cottage 1408 Dunhurst Dr Pensacola, FL 32534 $140,000 1,270 sq. ft. 4,447 sq. ft. $110
2017-06-21 Single Family Contemporary 4838 Huron Dr Pensacola, FL 32507 $119,000 1,625 sq. ft. 2,614 sq. ft. $73
2017-06-20 Single Family Craftsman 1708 Cervantes St Pensacola, FL 32501 $204,900 1,272 sq. ft. 10,999 sq. ft. $161
2017-06-20 Single Family Ranch 7185 Pearson Rd Pensacola, FL 32526 $84,900 1,316 sq. ft. 12,820 sq. ft. $65
2017-06-20 Single Family Ranch 3115 Brittany Ter Pensacola, FL 32504 $519,900 4,582 sq. ft. 15,682 sq. ft. $113
2017-06-20 Single Family Traditional 515 Romana St Pensacola, FL 32502 $250,000 1,216 sq. ft. $206
2017-06-20 Single Family Traditional 8734 Bradfield Dr Pensacola, FL 32507 $239,900 2,274 sq. ft. 7,000 sq. ft. $106
2017-06-20 Single Family Contemporary 1099 Chandelle Lake Dr Pensacola, FL 32507 $399,900 2,418 sq. ft. 17,511 sq. ft. $165
2017-06-20 Single Family Ranch 5921 Greenwood Ln Pensacola, FL 32504 $155,000 1,890 sq. ft. 11,326 sq. ft. $82
2017-06-20 Single Family Contemporary 509 Blount Pensacola, FL 32501 $425,000 2,601 sq. ft. 17,860 sq. ft. $163
2017-06-20 Single Family Contemporary 6022 Chapman Cir Pensacola, FL 32504 $379,900 2,500 sq. ft. 12,197 sq. ft. $152
2017-06-20 Single Family Country 7686 Charter Oaks Dr Pensacola, FL 32514 $159,900 1,511 sq. ft. 10,454 sq. ft. $106
2017-06-20 Single Family Traditional 3915 Tonbridge Cir Pensacola, FL 32514 $142,000 1,395 sq. ft. 12,632 sq. ft. $102
2017-06-20 Single Family Colonial 1801 Leonard St Pensacola, FL 32503 $229,000 1,140 sq. ft. 10,019 sq. ft. $201
2017-06-19 Single Family Traditional 9224 Bell Ridge Dr Pensacola, FL 32526 $260,000 2,170 sq. ft. 20,909 sq. ft. $120
2017-06-19 Single Family Ranch 1101 Chavers St Pensacola, FL 32534 $109,000 1,940 sq. ft. 17,424 sq. ft. $56
2017-06-19 Single Family Contemporary 3091 Flintlock Dr Pensacola, FL 32526 $94,000 1,030 sq. ft. 4,356 sq. ft. $91
2017-06-19 Single Family Traditional 2180 Frazier St Pensacola, FL 32514 $149,900 1,756 sq. ft. 10,890 sq. ft. $85
2017-06-19 Single Family Cottage; Craftsman 1108 Lloyd St Pensacola, FL 32503 $355,900 1,600 sq. ft. 5,227 sq. ft. $222
2017-06-19 Single Family Traditional 4561 Omaha Dr Pensacola, FL 32507 $259,000 2,080 sq. ft. 12,197 sq. ft. $125
2017-06-19 Single Family Ranch 3075 Desert St Pensacola, FL 32514 $164,900 1,702 sq. ft. 19,829 sq. ft. $97
2017-06-19 Single Family Spanish 8560 Winding Ln Pensacola, FL 32514 $114,900 1,416 sq. ft. 8,856 sq. ft. $81
2017-06-19 Single Family Traditional 7325 Martinique Rd Pensacola, FL 32504 $145,000 1,600 sq. ft. 16,117 sq. ft. $91
2017-06-19 Single Family Cottage 2927 9th Ave Pensacola, FL 32503 $55,900 640 sq. ft. 5,663 sq. ft. $87
2017-06-18 Single Family Ranch 11 Usher Cir Pensacola, FL 32505 $135,000 1,500 sq. ft. 11,326 sq. ft. $90
2017-06-18 Single Family Cottage; Traditional 1011 Strong St Pensacola, FL 32501 $329,900 1,480 sq. ft. 5,663 sq. ft. $223
2017-06-18 Single Family Cottage; Craftsman 1351 10th Ave Pensacola, FL 32503 $349,900 2,400 sq. ft. 8,712 sq. ft. $146
2017-06-18 Single Family Ranch 3233 Fridinger Dr Pensacola, FL 32526 $170,000 1,739 sq. ft. 44,867 sq. ft. $98
2017-06-18 Single Family Ranch 4591 Monpellier Dr Pensacola, FL 32505 $85,000 2,876 sq. ft. 6,970 sq. ft. $30
2017-06-18 Single Family Colonial; Traditional 1015 Harbourview Cir Pensacola, FL 32507 $649,900 4,496 sq. ft. 19,602 sq. ft. $145
2017-06-17 Single Family Contemporary 701 Meadowview Ln Pensacola, FL 32514 $179,900 1,818 sq. ft. 11,151 sq. ft. $99
2017-06-17 Single Family Traditional 4200 12th Ave Pensacola, FL 32503 $485,000 2,032 sq. ft. 19,166 sq. ft. $239
2017-06-17 Single Family Contemporary 760 Crooked Oak Dr Pensacola, FL 32514 $374,800 4,165 sq. ft. 15,682 sq. ft. $90
2017-06-17 Single Family Cottage 3004 Lee St Pensacola, FL 32503 $119,900 936 sq. ft. 1,132,560 sq. ft. $128
2017-06-16 Single Family Cottage 2605 7th Ave Pensacola, FL 32503 $61,000 1,122 sq. ft. 4,125 sq. ft. $54
2017-06-16 Single Family Traditional 4907 Springhill Dr Pensacola, FL 32503 $179,000 1,450 sq. ft. 16,117 sq. ft. $123
2017-06-16 Single Family Ranch 10504 Wilderness Ln Pensacola, FL 32534 $134,900 1,421 sq. ft. 3,920 sq. ft. $95
2017-06-16 Single Family Ranch; Traditional 5 Comanche Trl Pensacola, FL 32506 $99,500 1,623 sq. ft. 13,939 sq. ft. $61
2017-06-16 Single Family Cottage 2048 Marquesas Ln Pensacola, FL 32506 $90,500 1,110 sq. ft. 2,614 sq. ft. $82
2017-06-16 Single Family Ranch 1115 Balsa Ct Pensacola, FL 32507 $165,000 1,717 sq. ft. 8,533 sq. ft. $96
2017-06-16 Single Family Contemporary; Cottage 7820 Oak Forest Pl Pensacola, FL 32514 $95,000 1,066 sq. ft. 10,890 sq. ft. $89
2017-06-16 Single Family Traditional 3031 Magnolia Ave Pensacola, FL 32503 $426,000 2,037 sq. ft. $209
2017-06-16 Single Family Ranch 1608 61st Ave Pensacola, FL 32506 $159,000 2,367 sq. ft. 27,007 sq. ft. $67
2017-06-16 Single Family Traditional Pensacola, FL 32507 $215,000 2,086 sq. ft. 10,890 sq. ft. $103
2017-06-16 Single Family Contemporary 433 Fisher St Pensacola, FL 32503 $99,500 1,120 sq. ft. 5,445 sq. ft. $89
2017-06-16 Single Family Contemporary 2004 Blue Sky Dr Pensacola, FL 32506 $190,000 2,033 sq. ft. 10,890 sq. ft. $93
2017-06-16 Single Family Contemporary 7659 Old Hickory Dr Pensacola, FL 32507 $140,000 1,521 sq. ft. 8,255 sq. ft. $92
2017-06-16 Single Family Craftsman 10780 Trailblazer Way Pensacola, FL 32506 $189,900 1,783 sq. ft. 6,098 sq. ft. $107
2017-06-16 Single Family Contemporary 8120 Heirloom Drive Pensacola, FL 32514 $86,000 864 sq. ft. $100
2017-06-16 Single Family Contemporary 5909 Bay Point Dr Pensacola, FL 32507 $224,900 1,620 sq. ft. 4,356 sq. ft. $139
2017-06-15 Single Family Ranch 2407 Gonzalez St Pensacola, FL 32505 $55,000 1,040 sq. ft. 10,890 sq. ft. $53
2017-06-15 Single Family Cottage 4 Earl Ct Pensacola, FL 32507 $73,330 768 sq. ft. 12,502 sq. ft. $95
2017-06-15 Single Family Traditional 2359 11th Ave Pensacola, FL 32503 $243,500 1,194 sq. ft. 4,792 sq. ft. $204
2017-06-15 Single Family Craftsman 837 Oak Alley Pensacola, FL 32506 $189,900 1,783 sq. ft. 6,098 sq. ft. $107
2017-06-15 Single Family Craftsman 841 Oak Alley Pensacola, FL 32506 $198,900 1,875 sq. ft. 6,098 sq. ft. $106
2017-06-15 Single Family Craftsman 3102 Blount St Pensacola, FL 32503 $319,900 1,751 sq. ft. 7,523 sq. ft. $183
2017-06-15 Single Family Country 2401 S St Pensacola, FL 32505 $49,900 936 sq. ft. 12,197 sq. ft. $53
2017-06-15 Single Family Ranch 921 Belair Rd Pensacola, FL 32505 $87,500 1,064 sq. ft. 10,019 sq. ft. $82
2017-06-15 Single Family Contemporary 4002 Embers Landing Pensacola, FL 32505 $149,900 1,671 sq. ft. 5,663 sq. ft. $90
2017-06-15 Single Family English Tudor 2841 Inverness Pensacola, FL 32503 $399,900 2,746 sq. ft. 17,424 sq. ft. $146
2017-06-15 Single Family Traditional 312 Gonzalez St Pensacola, FL 32501 $725,000 5,404 sq. ft. 29,251 sq. ft. $134
2017-06-15 Single Family Contemporary 7821 Hearthstone Cir Pensacola, FL 32506 $209,900 2,425 sq. ft. 12,197 sq. ft. $87
2017-06-15 Single Family Ranch 7920 Le Jeune Dr Pensacola, FL 32514 $114,900 1,350 sq. ft. 9,775 sq. ft. $85
2017-06-15 Single Family Contemporary 1020 Joaquin Rd Pensacola, FL 32506 $189,900 1,911 sq. ft. 10,890 sq. ft. $99
2017-06-15 Single Family Craftsman 9219 Oak Crest Dr Pensacola, FL 32526 $397,900 3,424 sq. ft. 12,632 sq. ft. $116
2017-06-15 Single Family Traditional 25 Escalona Ave Pensacola, FL 32503 $139,000 1,500 sq. ft. 8,616 sq. ft. $93
2017-06-15 Single Family Ranch 6826 Temple Ln Pensacola, FL 32526 $179,000 1,864 sq. ft. 39,204 sq. ft. $96
2017-06-15 Single Family Ranch 3 Boland Pl Pensacola, FL 32505 $79,000 943 sq. ft. 5,663 sq. ft. $84
2017-06-15 Single Family Traditional 6204 Chicago Ave Pensacola, FL 32526 $89,900 1,404 sq. ft. 9,583 sq. ft. $64
2017-06-15 Single Family Traditional 12917 Island Spirit Dr Pensacola, FL 32506 $310,000 2,319 sq. ft. 7,405 sq. ft. $134
2017-06-15 Single Family Contemporary; Traditional 3390 Arizona Dr Pensacola, FL 32504 $269,000 2,200 sq. ft. 13,281 sq. ft. $122
2017-06-14 Single Family Contemporary 10203 Grackle Ct Pensacola, FL 32507 $299,900 2,531 sq. ft. 15,503 sq. ft. $118
2017-06-14 Single Family Ranch 15 Cloverland Ct Pensacola, FL 32505 $32,000 1,081 sq. ft. 10,454 sq. ft. $30
2017-06-14 Single Family Traditional 5479 Keel Dr Pensacola, FL 32507 $234,900 2,289 sq. ft. 11,635 sq. ft. $103
2017-06-14 Single Family Spanish 12502 Meadson Rd Pensacola, FL 32506 $400,000 3,390 sq. ft. 50,717 sq. ft. $118
2017-06-14 Single Family Cottage 7841 Heirloom Dr Pensacola, FL 32514 $109,900 1,234 sq. ft. 4,099 sq. ft. $89
2017-06-14 Single Family Cottage 3017 Flintlock Dr Pensacola, FL 32526 $109,500 1,007 sq. ft. 4,552 sq. ft. $109
2017-06-14 Single Family Contemporary 3123 Cedarwood Village Pl Pensacola, FL 32514 $110,000 1,308 sq. ft. 3,049 sq. ft. $84
2017-06-13 Single Family Ranch 2621 Mercado Ave Pensacola, FL 32507 $135,000 1,537 sq. ft. 14,375 sq. ft. $88
2017-06-13 Single Family Traditional 5823 Roble Loma Pensacola, FL 32526 $144,900 1,940 sq. ft. 11,761 sq. ft. $75
2017-06-13 Single Family Contemporary 9841 Crestmont Cir Pensacola, FL 32514 $159,900 1,567 sq. ft. 12,153 sq. ft. $102
2017-06-13 Single Family Ranch 10043 Hollowbrook Dr Pensacola, FL 32514 $229,000 2,066 sq. ft. 15,682 sq. ft. $111
2017-06-13 Single Family Cottage 1217 Government St Pensacola, FL 32502 $214,900 1,295 sq. ft. $166
2017-06-13 Single Family Cottage 1225 Government St Pensacola, FL 32502 $214,900 1,295 sq. ft. $166
2017-06-13 Single Family Cottage 1229 Government St Pensacola, FL 32502 $214,900 1,295 sq. ft. $166
2017-06-13 Single Family Cottage 1233 Government St Pensacola, FL 32502 $214,900 1,295 sq. ft. $166
2017-06-13 Single Family Cottage 1108 Government St Pensacola, FL 32502 $199,000 1,219 sq. ft. $163
2017-06-13 Single Family Ranch 675 Buoy Dr Pensacola, FL 32507 $179,900 1,723 sq. ft. 8,712 sq. ft. $104
2017-06-13 Single Family Traditional 5531 Woodsman Ct Pensacola, FL 32506 $69,900 1,224 sq. ft. 6,534 sq. ft. $57
2017-06-13 Single Family Traditional 2210 Waltham St Pensacola, FL 32505 $189,900 1,968 sq. ft. 9,553 sq. ft. $96
2017-06-13 Single Family Cottage 3220 Cervantes St Pensacola, FL 32505 $40,000 1,110 sq. ft. 8,712 sq. ft. $36
2017-06-13 Single Family Traditional 26 Pen Haven Dr Pensacola, FL 32506 $38,000 729 sq. ft. 6,970 sq. ft. $52
2017-06-13 Single Family Contemporary 7120 Rampart Way Pensacola, FL 32505 $299,900 2,984 sq. ft. 9,148 sq. ft. $100
2017-06-13 Single Family Cottage 309 1st St Pensacola, FL 32507 $144,700 1,060 sq. ft. 7,405 sq. ft. $137
2017-06-13 Single Family Traditional 10765 New Chemstrand Rd Pensacola, FL 32534 $169,900 1,600 sq. ft. 17,424 sq. ft. $106
2017-06-13 Single Family Ranch 1216 Bartram Ln Pensacola, FL 32507 $199,900 1,770 sq. ft. $113
2017-06-12 Single Family Ranch 823 Madison Dr Pensacola, FL 32505 $27,000 1,292 sq. ft. 8,276 sq. ft. $21
2017-06-12 Single Family Traditional 911 Ridgewood Ln Pensacola, FL 32526 $173,900 2,468 sq. ft. 28,750 sq. ft. $70
2017-06-12 Single Family Cottage 950 Buena Ave Pensacola, FL 32507 $159,000 1,263 sq. ft. 6,098 sq. ft. $126
2017-06-12 Single Family Cottage 1182 Hawthorn Dr Pensacola, FL 32507 $159,000 1,275 sq. ft. 6,098 sq. ft. $125
2017-06-12 Single Family Traditional 952 Dog Track Rd Pensacola, FL 32506 $399,900 2,900 sq. ft. 435,600 sq. ft. $138
2017-06-12 Single Family Contemporary; Traditional 4550 Bohemia Dr Pensacola, FL 32504 $575,000 3,330 sq. ft. 20,473 sq. ft. $173
2017-06-12 Single Family Ranch 7400 Tippin Ave Pensacola, FL 32504 $139,900 1,768 sq. ft. 13,068 sq. ft. $79
2017-06-12 Single Family Cottage; Traditional 3113 Moreno St Pensacola, FL 32503 $184,900 1,072 sq. ft. 5,009 sq. ft. $172
2017-06-12 Single Family Traditional 7977 Otis Way Pensacola, FL 32507 $189,900 1,784 sq. ft. 9,579 sq. ft. $106
2017-06-12 Single Family Ranch 493 Herron Villa Ln Pensacola, FL 32506 $285,000 1,527 sq. ft. 16,553 sq. ft. $187
2017-06-12 Single Family Traditional 710 Mozingo Ln Pensacola, FL 32514 $181,900 1,785 sq. ft. 6,534 sq. ft. $102
2017-06-11 Single Family Craftsman 1321 Desoto St Pensacola, FL 32501 $239,900 1,309 sq. ft. 5,663 sq. ft. $183
2017-06-11 Single Family Traditional 14480 Salt Meadow Dr Pensacola, FL 32507 $309,900 1,494 sq. ft. $207
2017-06-10 Single Family Ranch 5610 Shore Way Pensacola, FL 32507 $225,000 1,880 sq. ft. 11,761 sq. ft. $120
2017-06-10 Single Family Ranch 5111 Crestwood Rd Pensacola, FL 32503 $122,000 1,056 sq. ft. 12,558 sq. ft. $116
2017-06-09 Single Family Traditional 9573 Laramie Dr Pensacola, FL 32506 $185,000 1,700 sq. ft. $109
2017-06-09 Single Family Contemporary 4275 Brookside Dr Pensacola, FL 32503 $94,900 1,260 sq. ft. 1,742 sq. ft. $75
2017-06-09 Single Family Spanish 7765 Mobile Hwy Pensacola, FL 32526 $409,500 3,715 sq. ft. 104,544 sq. ft. $110
2017-06-09 Single Family Colonial; Traditional 4565 Francisco Rd Pensacola, FL 32504 $645,000 5,458 sq. ft. 21,780 sq. ft. $118
2017-06-08 Single Family Cottage; Traditional 4351 Montessori Dr Pensacola, FL 32504 $154,000 1,326 sq. ft. 10,219 sq. ft. $116
2017-06-08 Single Family Traditional 3360 New Hope Rd Pensacola, FL 32504 $379,000 3,372 sq. ft. $112
2017-06-08 Single Family Craftsman 1415 Hatton St Pensacola, FL 32503 $469,000 2,060 sq. ft. 9,148 sq. ft. $228
2017-06-08 Single Family Craftsman 1417 Hatton St Pensacola, FL 32503 $469,000 2,060 sq. ft. 9,148 sq. ft. $228
2017-06-08 Single Family Traditional 4005 Lynn Ora Dr Pensacola, FL 32504 $237,900 2,490 sq. ft. 12,632 sq. ft. $96
2017-06-08 Single Family Contemporary; Traditional 26 Rockwood Dr Pensacola, FL 32514 $392,400 3,333 sq. ft. 20,691 sq. ft. $118
2017-06-08 Single Family Cottage 381 N St Pensacola, FL 32501 $119,000 968 sq. ft. 3,986 sq. ft. $123
2017-06-08 Single Family Ranch 401 Bunker Hill Dr Pensacola, FL 32506 $205,000 2,353 sq. ft. 15,246 sq. ft. $87
2017-06-08 Single Family Contemporary 8526 Scenic Hills Dr Pensacola, FL 32514 $217,000 1,701 sq. ft. 10,890 sq. ft. $128
2017-06-08 Single Family Contemporary 5987 Bay Point Dr Pensacola, FL 32507 $189,900 1,321 sq. ft. 4,940 sq. ft. $144
2017-06-08 Single Family Country; Victorian 9818 Hollowbrook Dr Pensacola, FL 32514 $249,999 2,485 sq. ft. 15,947 sq. ft. $101
2017-06-07 Single Family Traditional 2301 Michigan Ave Pensacola, FL 32526 $72,900 1,164 sq. ft. 775 sq. ft. $63
2017-06-07 Single Family Contemporary 10644 Shear St Pensacola, FL 32534 $164,900 1,718 sq. ft. 4,356 sq. ft. $96
2017-06-07 Single Family Craftsman 15912 Innerarity Pt Rd Pensacola, FL 32507 $285,000 1,476 sq. ft. 44 sq. ft. $193
2017-06-07 Single Family Cottage 16210 Innerarity Pt Rd Pensacola, FL 32507 $349,900 2,281 sq. ft. 14,636 sq. ft. $153
2017-06-07 Single Family Craftsman 7974 Woodbrook Rd Pensacola, FL 32526 $289,900 2,091 sq. ft. 13,068 sq. ft. $139
2017-06-07 Single Family Craftsman 9213 Oak Crest Dr Pensacola, FL 32526 $454,400 4,425 sq. ft. 12,632 sq. ft. $103
2017-06-07 Single Family Ranch 709 G St Pensacola, FL 32502 $199,999 1,154 sq. ft. 8,276 sq. ft. $173
2017-06-07 Single Family Craftsman 9219 Oak Crest Dr Pensacola, FL 32526 $397,900 3,424 sq. ft. 12,632 sq. ft. $116
2017-06-07 Single Family Contemporary 2105 Antilles Dr Pensacola, FL 32506 $179,900 1,845 sq. ft. 17,424 sq. ft. $98
2017-06-07 Single Family Cottage 2201 Interlaken St Pensacola, FL 32502 $60,000 1,078 sq. ft. 6,098 sq. ft. $56
2017-06-07 Single Family Cottage 3906 Blount St Pensacola, FL 32505 $26,000 814 sq. ft. 9,148 sq. ft. $32
2017-06-06 Single Family Ranch 1390 Jasma Ln Pensacola, FL 32534 $129,900 1,531 sq. ft. 15,682 sq. ft. $85
2017-06-06 Single Family Cottage 1237 Government St Pensacola, FL 32502 $214,900 1,295 sq. ft. $166
2017-06-06 Single Family Traditional 2030 Galt Rd Pensacola, FL 32503 $238,900 2,064 sq. ft. 17,424 sq. ft. $116
2017-06-06 Single Family Traditional 4300 Francisco Pensacola, FL 32504 $239,500 2,057 sq. ft. 1,742 sq. ft. $116
2017-06-06 Single Family Cottage; Traditional 2209 Interlaken St Pensacola, FL 32502 $46,000 1,074 sq. ft. $43
2017-06-05 Single Family Colonial 590 Tanglewood Dr Pensacola, FL 32503 $399,000 2,816 sq. ft. 15,246 sq. ft. $142
2017-06-05 Single Family French Prov 25 Mar Vista Dr Pensacola, FL 32507 $1,199,500 3,657 sq. ft. 10,019 sq. ft. $328
2017-06-05 Single Family Ranch 10985 Country Ostrich Dr Pensacola, FL 32534 $199,000 2,362 sq. ft. 8,760 sq. ft. $84
2017-06-05 Single Family Ranch 7095 Glendora St Pensacola, FL 32526 $99,900 1,250 sq. ft. 6,665 sq. ft. $80
2017-06-05 Single Family Ranch 5712 Scotland Pl Pensacola, FL 32526 $129,000 1,650 sq. ft. 9,583 sq. ft. $78
2017-06-05 Single Family Contemporary 906 70th Ave Pensacola, FL 32506 $174,000 2,094 sq. ft. 18,295 sq. ft. $83
2017-06-05 Single Family A-Frame 1503 Rivers St Pensacola, FL 32514 $144,000 1,824 sq. ft. 17,860 sq. ft. $79
2017-06-05 Single Family Cottage 3006 Lee St Pensacola, FL 32503 $230,324 1,141 sq. ft. 15,246 sq. ft. $202
2017-06-05 Single Family Traditional 7040 Rolling Hill Rd Pensacola, FL 32505 $109,000 1,067 sq. ft. 15,682 sq. ft. $102
2017-06-05 Single Family Contemporary 8580 Kingfisher Ln Pensacola, FL 32534 $139,900 1,512 sq. ft. 9,409 sq. ft. $93
2017-06-04 Single Family Contemporary 4743 Huron Dr Pensacola, FL 32507 $115,000 1,678 sq. ft. 3,049 sq. ft. $69
2017-06-04 Single Family Traditional 17292 Perdido Key Dr Pensacola, FL 32507 $309,900 1,684 sq. ft. 1,307 sq. ft. $184
2017-06-04 Single Family Traditional 3232 Pursell Ln Pensacola, FL 32526 $214,999 2,509 sq. ft. 42,689 sq. ft. $86
2017-06-04 Single Family Ranch 3011 Tarragona St Pensacola, FL 32503 $55,000 1,020 sq. ft. 7,200 sq. ft. $54
2017-06-04 Single Family Contemporary 1165 Naples Dr Pensacola, FL 32507 $365,000 2,453 sq. ft. 16,117 sq. ft. $149
2017-06-03 Single Family Cottage 1701 Moreno St Pensacola, FL 32503 $379,900 1,984 sq. ft. 12,584 sq. ft. $191
2017-06-03 Single Family Ranch 1611 Ora Dr Pensacola, FL 32506 $82,500 950 sq. ft. 13,068 sq. ft. $87
2017-06-03 Single Family Ranch 5620 Talquin Ave Pensacola, FL 32526 $134,900 1,669 sq. ft. 9,226 sq. ft. $81
2017-06-03 Single Family Ranch 7946 Castle Pointe Way Pensacola, FL 32506 $215,000 2,300 sq. ft. 11,657 sq. ft. $93
2017-06-03 Single Family Traditional 1303 Dog Track Rd Pensacola, FL 32506 $65,900 1,086 sq. ft. 10,890 sq. ft. $61
2017-06-02 Single Family Ranch 2301 Majestic Dr Pensacola, FL 32534 $255,000 2,494 sq. ft. 13,939 sq. ft. $102
2017-06-02 Single Family Ranch 4315 Cheltenham Cir Pensacola, FL 32514 $239,900 2,132 sq. ft. 14,375 sq. ft. $113
2017-06-02 Single Family Traditional 14488 Salt Meadow Dr Pensacola, FL 32507 $309,000 1,494 sq. ft. $207
2017-06-02 Single Family Ranch 211 Emory Dr Pensacola, FL 32506 $37,100 1,100 sq. ft. 9,583 sq. ft. $34
2017-06-02 Single Family Ranch 6838 Stonehenge Cir Pensacola, FL 32506 $104,900 1,512 sq. ft. 10,755 sq. ft. $69
2017-06-02 Single Family Contemporary 8249 Carriage Ln Pensacola, FL 32514 $149,900 1,712 sq. ft. 5,663 sq. ft. $88
2017-06-02 Single Family Contemporary 187 Mirabelle Cir Pensacola, FL 32514 $164,900 1,450 sq. ft. 6,098 sq. ft. $114
2017-06-02 Single Family Traditional 3421 Holt Cir Pensacola, FL 32526 $189,000 2,031 sq. ft. 11,326 sq. ft. $93
2017-06-02 Single Family Contemporary 5586 Ponte Verde Rd Pensacola, FL 32507 $215,000 1,590 sq. ft. 12,632 sq. ft. $135
2017-06-01 Single Family Traditional 1550 Bayshore Ln Pensacola, FL 32507 $750,000 3,564 sq. ft. 10,668 sq. ft. $210
2017-06-01 Single Family Contemporary 1441 Chalet Pl Pensacola, FL 32514 $245,000 2,287 sq. ft. 15,682 sq. ft. $107
2017-06-01 Single Family Contemporary 8739 Ramble Woods Dr Pensacola, FL 32514 $169,900 1,625 sq. ft. 6,882 sq. ft. $105
2017-06-01 Single Family Cottage 403 Gadsden St Pensacola, FL 32502 $179,900 1,086 sq. ft. $166
2017-06-01 Single Family Contemporary 5416 Ponte Verde Rd Pensacola, FL 32507 $400,000 2,316 sq. ft. 12,197 sq. ft. $173
2017-06-01 Single Family Traditional 4580 Lavallet Ln Pensacola, FL 32504 $338,900 2,450 sq. ft. 17,947 sq. ft. $138
2017-06-01 Single Family Traditional 6115 Audubon Dr Pensacola, FL 32504 $165,000 1,949 sq. ft. 9,505 sq. ft. $85
2017-06-01 Single Family Ranch 3237 Massena Dr Pensacola, FL 32526 $219,900 2,070 sq. ft. 11,970 sq. ft. $106
2017-06-01 Single Family Ranch 1053 Antigua Cir Pensacola, FL 32506 $108,000 1,115 sq. ft. 6,704 sq. ft. $97
2017-06-01 Single Family Contemporary 3292 Pitcher Plant Cir Pensacola, FL 32506 $265,000 2,649 sq. ft. 8,712 sq. ft. $100
2017-06-01 Single Family Country; English Tudor; Traditional 3337 Fridinger Dr Pensacola, FL 32526 $179,900 1,671 sq. ft. 44,226 sq. ft. $108
2017-05-31 Single Family Contemporary 1100 Langley Ave Pensacola, FL 32504 $173,500 2,127 sq. ft. 17,424 sq. ft. $82
2017-05-31 Single Family Traditional 10769 Silver Creek Dr Pensacola, FL 32506 $134,500 1,214 sq. ft. 45,429 sq. ft. $111
2017-05-31 Single Family Traditional 1050 9 1/2 Mile Rd Pensacola, FL 32534 $167,500 2,073 sq. ft. 20,909 sq. ft. $81
2017-05-31 Single Family Traditional 4744 Huron Dr Pensacola, FL 32507 $105,000 1,650 sq. ft. 3,485 sq. ft. $64
2017-05-30 Single Family Contemporary; Traditional 1807 Lakeview Ave Pensacola, FL 32501 $34,900 1,044 sq. ft. $33
2017-05-30 Single Family Craftsman 5745 Blackhorse Cir Pensacola, FL 32526 $195,000 1,842 sq. ft. 5,227 sq. ft. $106
2017-05-30 Single Family Cottage 1206 Davis Hwy Pensacola, FL 32503 $159,900 1,200 sq. ft. $133
2017-05-30 Single Family Cottage 1208 Davis Hwy Pensacola, FL 32503 $159,900 1,200 sq. ft. $133
2017-05-30 Single Family Cottage 1210 Davis Hwy Pensacola, FL 32503 $159,900 1,200 sq. ft. $133
2017-05-30 Single Family Traditional 8620 Eight Mile Creek Rd Pensacola, FL 32526 $125,000 1,629 sq. ft. 40,511 sq. ft. $77
2017-05-30 Single Family Ranch 7741 Grundy St Pensacola, FL 32507 $145,000 1,595 sq. ft. 10,890 sq. ft. $91
2017-05-29 Single Family Traditional 6063 Hilburn Rd Pensacola, FL 32504 $99,900 1,207 sq. ft. 5,663 sq. ft. $83
2017-05-29 Single Family Traditional 6713 Fort Deposit Dr Pensacola, FL 32526 $239,900 2,992 sq. ft. 11,326 sq. ft. $80
2017-05-28 Single Family Cottage 1317 Desoto St Pensacola, FL 32503 $399,900 1,900 sq. ft. 5,663 sq. ft. $210
2017-05-27 Single Family Traditional 10802 Crosscut Dr Pensacola, FL 32506 $219,900 2,305 sq. ft. 11,326 sq. ft. $95
2017-05-27 Single Family Traditional 830 Calhoun Ave Pensacola, FL 32507 $85,000 820 sq. ft. 10,454 sq. ft. $104
2017-05-27 Single Family Craftsman 9479 Pebble Stone Dr Pensacola, FL 32526 $383,400 3,038 sq. ft. 16,117 sq. ft. $126
2017-05-27 Single Family Ranch 3451 Summit Blvd Pensacola, FL 32504 $179,000 1,696 sq. ft. $106
2017-05-27 Single Family Cottage 3029 Cedarwood Village Ln Pensacola, FL 32514 $109,000 1,254 sq. ft. $87
2017-05-26 Single Family Traditional 3755 Potosi Rd Pensacola, FL 32504 $170,000 1,868 sq. ft. 11,042 sq. ft. $91
2017-05-26 Single Family Traditional 7111 Eight Mile Creek Rd Pensacola, FL 32526 $125,000 1,264 sq. ft. 10,890 sq. ft. $99
2017-05-26 Single Family Traditional 804 Fleming Way Pensacola, FL 32514 $159,000 1,954 sq. ft. 14,026 sq. ft. $81
2017-05-26 Single Family Traditional 8717 Bradfield Dr Pensacola, FL 32507 $253,900 2,547 sq. ft. $100
2017-05-26 Single Family Cottage 6792 Malvern St Pensacola, FL 32506 $79,000 1,198 sq. ft. 8,189 sq. ft. $66
2017-05-26 Single Family Contemporary 11503 Clear Creek Dr Pensacola, FL 32514 $358,000 2,562 sq. ft. 83,200 sq. ft. $140
2017-05-26 Single Family Contemporary 923 Caterpillar Ln Pensacola, FL 32533 $339,900 2,766 sq. ft. 26,136 sq. ft. $123
2017-05-26 Single Family Traditional 56 Culpepper St Pensacola, FL 32526 $214,880 1,840 sq. ft. 6,534 sq. ft. $117
2017-05-26 Single Family Contemporary 11566 Belize Dr Pensacola, FL 32506 $299,900 2,962 sq. ft. 10,716 sq. ft. $101
2017-05-26 Single Family Cottage 1320 Wilson Ave Pensacola, FL 32507 $110,000 1,072 sq. ft. 24,394 sq. ft. $103
2017-05-26 Single Family Traditional 2465 Bluffs Cir Pensacola, FL 32503 $435,000 2,697 sq. ft. 18,731 sq. ft. $161
2017-05-26 Single Family Traditional 5740 Blackhorse Cir Pensacola, FL 32526 $190,000 1,916 sq. ft. 6,970 sq. ft. $99
2017-05-26 Single Family Creole; French Prov 4103 Gale Dr Pensacola, FL 32503 $340,000 2,429 sq. ft. 7,405 sq. ft. $140
2017-05-25 Single Family Contemporary 716 Candlestick Pl Pensacola, FL 32514 $157,000 1,544 sq. ft. 10,890 sq. ft. $102
2017-05-25 Single Family Contemporary 2480 Gulf Breeze Ave Pensacola, FL 32507 $134,900 1,544 sq. ft. 7,013 sq. ft. $87
2017-05-25 Single Family Traditional 1901 Cope Ln Pensacola, FL 32526 $225,000 560 sq. ft. 270,072 sq. ft. $402
2017-05-25 Single Family Traditional 7127 Inniswold Dr Pensacola, FL 32526 $305,000 3,007 sq. ft. 11,125 sq. ft. $101
2017-05-25 Single Family Contemporary 321 61st Ave Pensacola, FL 32507 $475,000 4,100 sq. ft. 13,351 sq. ft. $116
2017-05-24 Single Family Traditional 8815 Thunderbird Dr Pensacola, FL 32514 $319,000 3,010 sq. ft. 20,038 sq. ft. $106
2017-05-24 Single Family Traditional 627 62nd Ave Pensacola, FL 32506 $70,000 930 sq. ft. 10,454 sq. ft. $75
2017-05-24 Single Family Cottage 1244 Greystone Ln Pensacola, FL 32514 $174,900 2,014 sq. ft. 5,663 sq. ft. $87
2017-05-24 Single Family Ranch 1962 Coral Island Rd Pensacola, FL 32506 $239,900 2,431 sq. ft. 13,504 sq. ft. $99
2017-05-23 Single Family Ranch 4305 Monteigne Dr Pensacola, FL 32504 $249,500 1,626 sq. ft. 12,916 sq. ft. $153
2017-05-23 Single Family Traditional 319 Robinhood Ln Pensacola, FL 32526 $122,000 1,400 sq. ft. 11,326 sq. ft. $87
2017-05-23 Single Family Contemporary 9130 Arand Dr Pensacola, FL 32514 $145,000 1,400 sq. ft. 5,972 sq. ft. $104
2017-05-23 Single Family Contemporary 16329 Perdido Key Dr Pensacola, FL 32507 $1,750,000 2,270 sq. ft. 49,079 sq. ft. $771
2017-05-23 Single Family Creole 312 Wright St Pensacola, FL 32502 $110,000 1,092 sq. ft. 4,273 sq. ft. $101
2017-05-23 Single Family Ranch 791 Valley Ridge Way Pensacola, FL 32514 $137,900 1,413 sq. ft. 10,019 sq. ft. $98
2017-05-23 Single Family Contemporary 4870 Peacock Dr Pensacola, FL 32504 $154,900 3,242 sq. ft. 18,056 sq. ft. $48
2017-05-23 Single Family Traditional 3260 Desert St Pensacola, FL 32514 $132,000 1,416 sq. ft. 9,148 sq. ft. $93
2017-05-23 Single Family Ranch 3780 Bayou Blvd Pensacola, FL 32503 $159,900 2,016 sq. ft. 15,246 sq. ft. $79
2017-05-22 Single Family Ranch 6330 Helms Rd Pensacola, FL 32526 $199,900 2,775 sq. ft. 148,540 sq. ft. $72
2017-05-22 Single Family Ranch 4630 Havre Way Pensacola, FL 32505 $82,000 1,521 sq. ft. 8,150 sq. ft. $54
2017-05-22 Single Family Ranch 5633 Ventura Ln Pensacola, FL 32526 $80,000 1,140 sq. ft. 13,068 sq. ft. $70
2017-05-22 Single Family Traditional 502 Navy Blvd Pensacola, FL 32507 $179,900 1,500 sq. ft. 6,251 sq. ft. $120
2017-05-22 Single Family Traditional 520 Intendencia Pensacola, FL 32502 $335,000 1,600 sq. ft. $209
2017-05-22 Single Family Cottage 2003 Maxwell St Pensacola, FL 32503 $359,000 1,803 sq. ft. 8,276 sq. ft. $199
2017-05-22 Single Family Traditional 520 Intendencia St Pensacola, FL 32502 $315,000 1,600 sq. ft. $197
2017-05-22 Single Family Traditional 520 Intendencia St Pensacola, FL 32502 $325,000 1,600 sq. ft. $203
2017-05-22 Single Family Ranch; Traditional 1127 Dunmire St Pensacola, FL 32504 $172,800 1,728 sq. ft. $100
2017-05-22 Single Family Cottage; Ranch 110 Country Club Rd Pensacola, FL 32507 $219,000 1,305 sq. ft. 6,656 sq. ft. $168
2017-05-22 Single Family Contemporary 393 Gulfview Ln Pensacola, FL 32507 $879,000 4,196 sq. ft. 13,068 sq. ft. $209
2017-05-21 Single Family Craftsman 7990 Woodbrook Rd Pensacola, FL 32526 $347,400 3,076 sq. ft. 13,068 sq. ft. $113
2017-05-21 Single Family Contemporary 5548 Navaho Dr Pensacola, FL 32507 $364,000 2,700 sq. ft. 10,890 sq. ft. $135
2017-05-20 Single Family Traditional 7843 Northpointe Blvd Pensacola, FL 32514 $171,990 1,880 sq. ft. 10,454 sq. ft. $91
2017-05-20 Single Family Contemporary 3408 Wasatch Range Loop Pensacola, FL 32526 $184,900 1,820 sq. ft. 5,968 sq. ft. $102
2017-05-20 Single Family Cottage 1760 Romana St Pensacola, FL 32502 $139,000 1,120 sq. ft. 7,349 sq. ft. $124
2017-05-20 Single Family Traditional 8815 Thunderbird Drive Pensacola, FL 32514 $319,900 3,010 sq. ft. 20,038 sq. ft. $106
2017-05-20 Single Family Traditional 6503 Terrasanta Pensacola, FL 32504 $269,900 2,360 sq. ft. 13,939 sq. ft. $114
2017-05-20 Single Family Craftsman 8016 Woodbrook Rd Pensacola, FL 32526 $312,925 2,741 sq. ft. 13,068 sq. ft. $114
2017-05-20 Single Family Ranch 7555 Sandy Creek Dr Pensacola, FL 32506 $125,100 1,445 sq. ft. 10,890 sq. ft. $87
2017-05-19 Single Family Traditional 1954 Adirondack Ave Pensacola, FL 32514 $375,000 3,700 sq. ft. 36,856 sq. ft. $101
2017-05-19 Single Family Ranch 7340 Belgium Rd Pensacola, FL 32526 $214,900 2,800 sq. ft. 17,860 sq. ft. $77
2017-05-19 Single Family Contemporary 6064 Yellow Rose Dr Pensacola, FL 32526 $148,900 1,548 sq. ft. 27,007 sq. ft. $96
2017-05-19 Single Family Traditional 3928 Tonbridge Cir Pensacola, FL 32514 $169,900 1,750 sq. ft. 10,454 sq. ft. $97
2017-05-19 Single Family Traditional 9137 Moroso Dr Pensacola, FL 32506 $165,000 1,809 sq. ft. 8,276 sq. ft. $91
2017-05-19 Single Family Traditional 1132 59th Ave Pensacola, FL 32506 $101,460 1,152 sq. ft. 18,731 sq. ft. $88
2017-05-19 Single Family Contemporary 1006 Lake-Aire Dr Pensacola, FL 32506 $177,600 2,066 sq. ft. 9,148 sq. ft. $86
2017-05-18 Single Family Contemporary 8047 Thoroughbred Rd Pensacola, FL 32526 $279,900 2,523 sq. ft. 30,492 sq. ft. $111
2017-05-18 Single Family Contemporary 7042 Rampart Way Pensacola, FL 32505 $209,900 2,463 sq. ft. 9,583 sq. ft. $85
2017-05-18 Single Family Contemporary 9601 Sorrento Rd Pensacola, FL 32507 $767,450 2,793 sq. ft. 217,800 sq. ft. $275
2017-05-18 Single Family Contemporary 3059 Myrshine Dr Pensacola, FL 32506 $137,500 1,470 sq. ft. 15,246 sq. ft. $94
2017-05-17 Single Family Contemporary 1051 Paradise Ln Pensacola, FL 32506 $1,395,000 4,000 sq. ft. 100,188 sq. ft. $349
2017-05-17 Single Family Ranch 18 Eaton Rd Pensacola, FL 32526 $54,900 1,414 sq. ft. 7,841 sq. ft. $39
2017-05-17 Single Family Traditional 7361 Beta Ln Pensacola, FL 32504 $154,900 1,999 sq. ft. 11,326 sq. ft. $77
2017-05-17 Single Family Traditional 3241 Bayou Blvd Pensacola, FL 32503 $275,000 2,500 sq. ft. 13,068 sq. ft. $110
2017-05-17 Single Family Contemporary 8351 Foxtail Loop Pensacola, FL 32526 $409,900 2,540 sq. ft. 15,246 sq. ft. $161
2017-05-17 Single Family Cottage 6016 Damara Ln Pensacola, FL 32506 $134,500 1,344 sq. ft. 9,583 sq. ft. $100
2017-05-17 Single Family Cottage 6004 Damara Ln Pensacola, FL 32506 $134,500 1,344 sq. ft. 9,148 sq. ft. $100
2017-05-17 Single Family Traditional 7419 Lillie Ln Pensacola, FL 32526 $224,900 2,146 sq. ft. 14,841 sq. ft. $105
2017-05-16 Single Family Contemporary 9134 Moroso Dr Pensacola, FL 32506 $154,900 1,611 sq. ft. 8,276 sq. ft. $96
2017-05-16 Single Family Cottage; Craftsman 324 Seamarge Ln Pensacola, FL 32507 $152,900 1,515 sq. ft. 3,602 sq. ft. $101
2017-05-16 Single Family Craftsman 328 Seamarge Ln Pensacola, FL 32507 $149,650 1,454 sq. ft. 3,602 sq. ft. $103
2017-05-16 Single Family Cottage 330 Seamarge Ln Pensacola, FL 32507 $160,900 1,645 sq. ft. 3,916 sq. ft. $98
2017-05-16 Single Family Craftsman 8932 Salt Grass Dr Pensacola, FL 32526 $442,700 2,588 sq. ft. 13,939 sq. ft. $171
2017-05-16 Single Family Traditional 6045 Firefly Dr Pensacola, FL 32507 $289,500 2,992 sq. ft. 10,764 sq. ft. $97
2017-05-16 Single Family Traditional 1912 Cross St Pensacola, FL 32503 $195,000 1,520 sq. ft. 7,950 sq. ft. $128
2017-05-16 Single Family Traditional 9049 Camelot Pl Pensacola, FL 32534 $155,000 1,557 sq. ft. 7,841 sq. ft. $100
2017-05-16 Single Family Contemporary 8865 Spider Lily Way Pensacola, FL 32526 $519,900 2,705 sq. ft. 15,246 sq. ft. $192
2017-05-16 Single Family Contemporary 7818 Oak Forest Pl Pensacola, FL 32514 $95,000 1,086 sq. ft. 7,100 sq. ft. $87
2017-05-16 Single Family Contemporary; Ranch 5608 Ponte Verde Rd Pensacola, FL 32507 $213,500 1,995 sq. ft. 10,890 sq. ft. $107
2017-05-16 Single Family Ranch 445 Corrydale Dr Pensacola, FL 32506 $89,900 1,225 sq. ft. 6,098 sq. ft. $73
2017-05-16 Single Family Traditional 8692 Blake Evan Cir Pensacola, FL 32526 $322,477 2,349 sq. ft. $137
2017-05-16 Single Family Contemporary 850 Paradise Beach Cir Pensacola, FL 32506 $499,000 2,720 sq. ft. 38,799 sq. ft. $183
2017-05-15 Single Family Contemporary 141 Mirabelle Cir Pensacola, FL 32514 $174,000 1,775 sq. ft. 5,227 sq. ft. $98
2017-05-15 Single Family Cottage 8495 Lawton St Pensacola, FL 32514 $79,900 1,305 sq. ft. 19,602 sq. ft. $61
2017-05-15 Single Family Contemporary 12 Marconi Way Pensacola, FL 32507 $204,000 2,231 sq. ft. 11,452 sq. ft. $91
2017-05-15 Single Family Contemporary 16530 Innerarity Pt Rd Pensacola, FL 32507 $289,900 2,196 sq. ft. 12,432 sq. ft. $132
2017-05-15 Single Family Contemporary 1593 Galvin Ave Pensacola, FL 32526 $145,000 1,318 sq. ft. 6,534 sq. ft. $110
2017-05-15 Single Family Cottage 3070 Melody Ln Pensacola, FL 32505 $49,900 888 sq. ft. 4,792 sq. ft. $56
2017-05-15 Single Family Ranch 2297 Greenbrier Blvd Pensacola, FL 32514 $259,900 2,634 sq. ft. 13,939 sq. ft. $99
2017-05-15 Single Family Traditional 541 Batten Blvd Pensacola, FL 32507 $194,900 2,080 sq. ft. 10,393 sq. ft. $94
2017-05-15 Single Family Country 6473 Memphis Ave Pensacola, FL 32526 $114,000 1,266 sq. ft. 10,890 sq. ft. $90
2017-05-14 Single Family Contemporary 5918 Bay Vista Dr Pensacola, FL 32507 $199,900 1,600 sq. ft. 5,227 sq. ft. $125
2017-05-14 Single Family Contemporary 3504 Fishermans Ct Pensacola, FL 32506 $449,500 3,000 sq. ft. 11,761 sq. ft. $150
2017-05-13 Single Family Contemporary 5566 Grande Lagoon Ct Pensacola, FL 32507 $379,900 2,592 sq. ft. 14,353 sq. ft. $147
2017-05-12 Single Family Traditional 7910 Le Jeune Dr Pensacola, FL 32514 $140,000 1,812 sq. ft. 13,068 sq. ft. $77
2017-05-12 Single Family Traditional 2341 Inverness Dr Pensacola, FL 32503 $299,900 2,254 sq. ft. 11,927 sq. ft. $133
2017-05-12 Single Family Contemporary 7910 Thomley Tr Pensacola, FL 32526 $425,000 2,933 sq. ft. 145,055 sq. ft. $145
2017-05-12 Single Family Traditional 615 Clubhouse Ter Pensacola, FL 32507 $475,000 2,632 sq. ft. 8,712 sq. ft. $180
2017-05-12 Single Family Contemporary 3403 Edinborough Ct Pensacola, FL 32514 $235,000 2,540 sq. ft. 20,909 sq. ft. $93
2017-05-12 Single Family Ranch 4140 Fern Ct Pensacola, FL 32503 $225,000 3,126 sq. ft. 12,881 sq. ft. $72
2017-05-12 Single Family Cottage; Traditional 1414 Lee St Pensacola, FL 32503 $254,900 1,114 sq. ft. 8,276 sq. ft. $229
2017-05-12 Single Family Traditional 54 Crabapple Ln Pensacola, FL 32514 $359,000 2,975 sq. ft. 14,810 sq. ft. $121
2017-05-12 Single Family Contemporary 7653 Wood Stream Dr Pensacola, FL 32514 $284,900 2,430 sq. ft. 27,443 sq. ft. $117
2017-05-12 Single Family Country; Ranch 8914 Klondike Rd Pensacola, FL 32526 $399,000 3,000 sq. ft. 192,971 sq. ft. $133
2017-05-12 Single Family Ranch 575 68th Ave Pensacola, FL 32506 $61,900 864 sq. ft. 7,841 sq. ft. $72
2017-05-12 Single Family Traditional 247 Airport Blvd Pensacola, FL 32503 $90,000 1,330 sq. ft. 9,148 sq. ft. $68
2017-05-12 Single Family Colonial 3072 Olive Rd Pensacola, FL 32514 $189,000 2,600 sq. ft. 18,295 sq. ft. $73
2017-05-11 Single Family Contemporary 5893 Dandelion Ln Pensacola, FL 32526 $147,000 1,534 sq. ft. 5,663 sq. ft. $96
2017-05-11 Single Family Colonial 1409 Lemhurst Rd Pensacola, FL 32507 $169,900 1,584 sq. ft. $107
2017-05-11 Single Family Traditional 6843 Lake Charlene Dr Pensacola, FL 32506 $175,000 2,000 sq. ft. 16,117 sq. ft. $88
2017-05-11 Single Family Contemporary; Traditional; Mediterranean 10606 Santorini Ct Pensacola, FL 32507 $239,900 1,862 sq. ft. 6,342 sq. ft. $129
2017-05-11 Single Family Ranch 397 Clairmont Dr Pensacola, FL 32506 $60,000 1,402 sq. ft. 8,712 sq. ft. $43
2017-05-10 Single Family Traditional 1110 Dunmire St Pensacola, FL 32504 $225,000 2,179 sq. ft. 13,068 sq. ft. $103
2017-05-10 Single Family Craftsman 12789 Island Spirit Dr Pensacola, FL 32506 $298,990 2,605 sq. ft. $115
2017-05-10 Single Family Craftsman 8020 Woodbrook Rd Pensacola, FL 32526 $314,750 2,409 sq. ft. 13,504 sq. ft. $131
2017-05-10 Single Family Ranch 400 Ten Mile Rd Pensacola, FL 32534 $159,000 1,803 sq. ft. 44,867 sq. ft. $88
2017-05-10 Single Family Craftsman 9490 Pebble Stone Dr Pensacola, FL 32526 $373,900 2,942 sq. ft. 13,504 sq. ft. $127
2017-05-10 Single Family Cottage 2906 Lee St Pensacola, FL 32505 $35,000 984 sq. ft. 7,593 sq. ft. $36
2017-05-10 Single Family Traditional 7606 Harvey St Pensacola, FL 32506 $144,900 1,647 sq. ft. 25,700 sq. ft. $88
2017-05-10 Single Family Traditional 2133 Antillies Dr Pensacola, FL 32506 $165,000 1,619 sq. ft. 9,453 sq. ft. $102
2017-05-10 Single Family Ranch 203 Tonawanda Dr Pensacola, FL 32506 $117,000 1,467 sq. ft. 11,169 sq. ft. $80
2017-05-10 Single Family Contemporary 7139 Jennifer Rd Pensacola, FL 32526 $249,500 2,550 sq. ft. 12,632 sq. ft. $98
2017-05-09 Single Family Contemporary 4631 La Jolla Pensacola, FL 32504 $428,900 3,504 sq. ft. 12,153 sq. ft. $122
2017-05-09 Single Family Contemporary 10 60th Ave Pensacola, FL 32506 $159,999 1,760 sq. ft. 24,224 sq. ft. $91
2017-05-09 Single Family Traditional 6511 Pebble Dr Pensacola, FL 32505 $95,000 1,296 sq. ft. 12,632 sq. ft. $73
2017-05-09 Single Family Traditional 7376 Templeton Rd Pensacola, FL 32506 $135,000 1,813 sq. ft. 15,246 sq. ft. $74
2017-05-09 Single Family Ranch 425 Belle Chasse Way Pensacola, FL 32506 $101,300 1,949 sq. ft. 14,810 sq. ft. $52
2017-05-08 Single Family Traditional 55 Star Lake Dr Pensacola, FL 32507 $920,000 4,602 sq. ft. 15,067 sq. ft. $200
2017-05-08 Single Family Contemporary 6434 Lake Charlene Ct Pensacola, FL 32506 $184,900 2,310 sq. ft. 13,068 sq. ft. $80
2017-05-08 Single Family Country 309 59th Ave Pensacola, FL 32506 $119,000 1,456 sq. ft. 12,632 sq. ft. $82
2017-05-08 Single Family Ranch 6215 Confederate Dr Pensacola, FL 32503 $144,900 1,623 sq. ft. 13,504 sq. ft. $89
2017-05-08 Single Family Traditional 4521 Lemoyne Ln Pensacola, FL 32505 $40,000 1,524 sq. ft. 7,841 sq. ft. $26
2017-05-08 Single Family Contemporary 2356 Amelia Ln Pensacola, FL 32526 $249,900 2,764 sq. ft. 16,117 sq. ft. $90
2017-05-08 Single Family Ranch 9536 Yarrow Cir Pensacola, FL 32514 $799,000 3,750 sq. ft. 23,522 sq. ft. $213
2017-05-07 Single Family Traditional 26 Lincoln Rd Pensacola, FL 32507 $64,000 1,150 sq. ft. 7,405 sq. ft. $56
2017-05-07 Single Family Contemporary 5505 Grande Lagoon Blvd Pensacola, FL 32507 $535,000 3,213 sq. ft. 17,424 sq. ft. $167
2017-05-07 Single Family Traditional 3935 Scenic Highway Cir Pensacola, FL 32504 $374,500 3,105 sq. ft. 10,890 sq. ft. $121
2017-05-06 Single Family Ranch 2427 Cavalla Loop Pensacola, FL 32526 $133,000 1,502 sq. ft. 10,890 sq. ft. $89
2017-05-06 Single Family Traditional 343 Gamarra Rd Pensacola, FL 32503 $274,900 1,645 sq. ft. 14,458 sq. ft. $167
2017-05-06 Single Family Craftsman 8585 Salt Grass Dr Pensacola, FL 32526 $374,900 2,660 sq. ft. 7,841 sq. ft. $141
2017-05-06 Single Family Traditional 8538 Foxtail Loop Pensacola, FL 32526 $515,399 2,950 sq. ft. $175
2017-05-06 Single Family Contemporary 3693 Mackey Cove Dr Pensacola, FL 32514 $625,000 3,512 sq. ft. 20,369 sq. ft. $178
2017-05-06 Single Family Traditional 595 Riola Pl Pensacola, FL 32506 $229,800 2,039 sq. ft. 11,387 sq. ft. $113
2017-05-06 Single Family Ranch 5490 Cruzat Way Pensacola, FL 32507 $480,000 1,218 sq. ft. 26,572 sq. ft. $394
2017-05-05 Single Family Traditional 5996 Huntington Creek Blvd Pensacola, FL 32526 $574,900 3,510 sq. ft. 14,810 sq. ft. $164
2017-05-05 Single Family Cottage 1303 Y St Pensacola, FL 32505 $37,500 720 sq. ft. 5,968 sq. ft. $52
2017-05-05 Single Family Craftsman 8004 Woodbrook Rd Pensacola, FL 32526 $293,450 2,306 sq. ft. 12,197 sq. ft. $127
2017-05-05 Single Family Contemporary 9248 Bell Ridge Dr Pensacola, FL 32526 $294,900 2,518 sq. ft. 28,314 sq. ft. $117
2017-05-05 Single Family Contemporary 1780 Leonard St Pensacola, FL 32503 $485,000 2,900 sq. ft. 10,890 sq. ft. $167
2017-05-05 Single Family Traditional 8799 Blake Evan Cir Pensacola, FL 32526 $354,875 2,610 sq. ft. $136
2017-05-05 Single Family Traditional 8842 Meadowbrook Dr Pensacola, FL 32514 $299,000 2,654 sq. ft. 14,810 sq. ft. $113
2017-05-05 Single Family Traditional 1900 Desoto St Pensacola, FL 32501 $649,000 3,380 sq. ft. 10,890 sq. ft. $192
2017-05-05 Single Family Contemporary 5073 High Pointe Dr Pensacola, FL 32505 $295,000 2,482 sq. ft. 14,375 sq. ft. $119
2017-05-05 Single Family Traditional 8096 Castle Pt Way Pensacola, FL 32506 $189,000 1,527 sq. ft. 6,534 sq. ft. $124
2017-05-04 Single Family Ranch 4425 Yarmouth Pl Pensacola, FL 32514 $209,900 2,304 sq. ft. 20,974 sq. ft. $91
2017-05-04 Single Family Craftsman 8947 Foxtail Loop Pensacola, FL 32526 $527,850 3,105 sq. ft. 14,505 sq. ft. $170
2017-05-04 Single Family Ranch 1869 Southbay Dr Pensacola, FL 32506 $205,000 2,066 sq. ft. 8,712 sq. ft. $99
2017-05-04 Single Family Ranch 6047 Spanish Oak Dr Pensacola, FL 32526 $295,000 2,316 sq. ft. 95,396 sq. ft. $127
2017-05-04 Single Family Contemporary 2018 Mackey Key Dr Pensacola, FL 32514 $749,000 4,208 sq. ft. 19,166 sq. ft. $178
2017-05-04 Single Family Traditional 7745 Fieldcrest Ct Pensacola, FL 32526 $261,531 2,369 sq. ft. 9,361 sq. ft. $110
2017-05-04 Single Family Traditional 7755 Winter Greene Dr Pensacola, FL 32526 $262,325 2,376 sq. ft. 9,858 sq. ft. $110
2017-05-04 Single Family Traditional 7757 Fieldcrest Ct Pensacola, FL 32526 $240,543 1,903 sq. ft. 9,792 sq. ft. $126
2017-05-04 Single Family Country 7427 La Quinta Rd Pensacola, FL 32526 $239,900 2,400 sq. ft. 90,169 sq. ft. $100
2017-05-03 Single Family Contemporary 1515 Sandcliff Dr Pensacola, FL 32507 $210,000 2,273 sq. ft. 1,018 sq. ft. $92
2017-05-03 Single Family Traditional 3997 Erika Ct Pensacola, FL 32526 $199,900 1,638 sq. ft. 29,185 sq. ft. $122
2017-05-03 Single Family Ranch 1920 John Caroll Dr Pensacola, FL 32504 $329,900 2,597 sq. ft. 30,928 sq. ft. $127
2017-05-03 Single Family Contemporary 127 Calle De Santiago Ct Pensacola, FL 32502 $474,900 2,000 sq. ft. 1,742 sq. ft. $237
2017-05-03 Single Family Contemporary 7480 Scenic Hwy Pensacola, FL 32504 $649,900 5,250 sq. ft. 32,670 sq. ft. $124
2017-05-03 Single Family Traditional 8794 Blake Evan Cir Pensacola, FL 32526 $325,715 2,414 sq. ft. $135
2017-05-03 Single Family Cottage 202 2nd St Pensacola, FL 32507 $139,900 1,400 sq. ft. 6,534 sq. ft. $100
2017-05-03 Single Family Ranch 10114 Crest Ridge Dr Pensacola, FL 32514 $179,400 1,805 sq. ft. 6,970 sq. ft. $99
2017-05-02 Single Family Craftsman 16403 North Shore Ct Pensacola, FL 32507 $303,490 2,200 sq. ft. 10,454 sq. ft. $138
2017-05-02 Single Family Traditional 5660 Ponte Verde Rd Pensacola, FL 32507 $484,900 2,960 sq. ft. 16,988 sq. ft. $164
2017-05-02 Single Family Contemporary 5558 Ponte Verde Ct Pensacola, FL 32507 $265,000 1,873 sq. ft. 12,153 sq. ft. $141
2017-05-02 Single Family Ranch 835 Amberway Dr Pensacola, FL 32506 $110,000 1,431 sq. ft. 6,534 sq. ft. $77
2017-05-02 Single Family Traditional 2116 Coral Creek Dr Pensacola, FL 32506 $159,800 1,660 sq. ft. 11,360 sq. ft. $96
2017-05-02 Single Family Traditional 6822 Stonehenge Cir Pensacola, FL 32506 $210,000 2,920 sq. ft. 10,542 sq. ft. $72
2017-05-01 Single Family Cottage; Ranch 101 Monarch Ln Pensacola, FL 32503 $129,000 1,317 sq. ft. 16,117 sq. ft. $98
2017-05-01 Single Family Craftsman 1704 14th Ave Pensacola, FL 32503 $499,900 2,622 sq. ft. 7,841 sq. ft. $191
2017-05-01 Single Family Cottage 428 Government St Pensacola, FL 32502 $485,000 1,807 sq. ft. 5,027 sq. ft. $268
2017-05-01 Single Family Cottage 14887 Innerarity Pt Rd Pensacola, FL 32507 $457,000 2,724 sq. ft. 13,068 sq. ft. $168
2017-05-01 Single Family Ranch 8518 Kingfisher Way Pensacola, FL 32534 $139,900 1,455 sq. ft. 9,239 sq. ft. $96
2017-05-01 Single Family Ranch 1638 Cedrus Ln Pensacola, FL 32514 $187,750 2,064 sq. ft. $91
2017-05-01 Single Family Traditional 8784 Foxtail Loop Pensacola, FL 32526 $515,000 2,818 sq. ft. 13,939 sq. ft. $183
2017-04-30 Single Family Contemporary 6305 Shore Dr Pensacola, FL 32505 $135,900 1,610 sq. ft. $84
2017-04-30 Single Family Traditional 1876 Baylen St Pensacola, FL 32501 $199,550 1,917 sq. ft. 7,405 sq. ft. $104
2017-04-30 Single Family Traditional 10001 Hollowbrook Dr Pensacola, FL 32514 $239,900 1,966 sq. ft. 14,375 sq. ft. $122
2017-04-30 Single Family A-Frame 4539 Monpellier Dr Pensacola, FL 32505 $64,900 1,637 sq. ft. 7,405 sq. ft. $40
2017-04-29 Single Family Contemporary 9339 Scenic Hwy Pensacola, FL 32514 $699,000 3,950 sq. ft. 69,260 sq. ft. $177
2017-04-29 Single Family Ranch 3710 Olive Rd Pensacola, FL 32514 $139,900 1,430 sq. ft. 13,068 sq. ft. $98
2017-04-29 Single Family Traditional 173 Creekview Dr Pensacola, FL 32503 $157,500 1,538 sq. ft. 5,502 sq. ft. $102
2017-04-28 Single Family Traditional 2164 Copley Dr Pensacola, FL 32503 $315,000 3,163 sq. ft. 15,072 sq. ft. $100
2017-04-28 Single Family Traditional 5445 Primrose Dr Pensacola, FL 32504 $205,000 2,087 sq. ft. 11,761 sq. ft. $98
2017-04-28 Single Family Contemporary 10059 Rookery Rd Pensacola, FL 32507 $399,900 3,052 sq. ft. 16,784 sq. ft. $131
2017-04-28 Single Family Traditional 500 Navy Boulevard Pensacola, FL 32507 $129,900 1,248 sq. ft. $104
2017-04-28 Single Family Ranch 2516 Jibe Dr Pensacola, FL 32507 $239,000 2,334 sq. ft. $102
2017-04-28 Single Family Traditional 10156 Castleberry Blvd Pensacola, FL 32526 $219,900 2,387 sq. ft. 10,890 sq. ft. $92